Eagle River, Michigan
Current Conditions -  °F | °C
As of 6:53 AM on Friday 28 Nov 2014 (Local Time) from KCMX Reporting Station
Overcast Overcast  
Wind Chill: -2°   Ceiling: 10000
Heat Index:   Visibility: 10mi
Dew Point:   Wind: 6mph
Humidity: 70%   Direction: 210°SSW
Pressure: 30.14"   Gusts: NA
Location:  47.3621°N, 88.1281°W
Report Text: KCMX 281153Z AUTO 21005KT 10SM BKN100 OVC120 M13/M18 A3014 RMK AO2 SLP234 60000 70001 T11331178 11128 21156 58020
Loading
Personal Weather Stations






























Interactive Weather Map New forecast layout! Learn more

10-Day Weather Forecast

Advertisements
Track Severe Weather on mobile